Time;durP1;ratioP1;P1;durP2;ratioP2;P2;SDS_P1;SDS_P2;PMS_P1;PMS_P2;Temp;Humidity;BMP_temperature;BMP_pressure;BME280_temperature;BME280_humidity;BME280_pressure;Samples;Min_cycle;Max_cycle;Signal;HPM_P1;HPM_P2
2021/05/31 00:02:22;;;;;;;0.10;0.10;;;14.60;67.00;;;;;;6217246;23;20000;-78
2021/05/31 00:04:48;;;;;;;0.10;0.10;;;14.70;68.40;;;;;;6217258;23;20036;-77
2021/05/31 00:07:18;;;;;;;0.10;0.10;;;14.80;68.70;;;;;;6244018;22;20087;-78
2021/05/31 00:09:44;;;;;;;0.10;0.10;;;14.90;69.20;;;;;;6244527;22;20398;-78
2021/05/31 00:12:13;;;;;;;0.10;0.10;;;15.00;70.10;;;;;;6217148;23;20032;-78
2021/05/31 00:14:40;;;;;;;0.10;0.10;;;15.00;67.90;;;;;;6217038;22;20101;-78
2021/05/31 00:17:06;;;;;;;0.10;0.10;;;14.90;69.10;;;;;;6244181;22;20427;-77
2021/05/31 00:19:31;;;;;;;0.10;0.10;;;14.90;70.50;;;;;;6242145;22;20075;-78
2021/05/31 00:21:57;;;;;;;0.10;0.10;;;14.90;71.10;;;;;;6213103;23;20027;-78
2021/05/31 00:24:23;;;;;;;0.10;0.10;;;14.90;67.90;;;;;;6243301;22;20003;-78
2021/05/31 00:26:49;;;;;;;0.10;0.10;;;15.00;68.90;;;;;;6242713;22;20004;-78
2021/05/31 00:29:16;;;;;;;0.10;0.10;;;15.00;69.00;;;;;;6217352;23;20000;-77
2021/05/31 00:31:42;;;;;;;0.10;0.10;;;15.10;68.20;;;;;;6243845;23;20007;-78
2021/05/31 00:34:08;;;;;;;0.10;0.10;;;15.10;69.40;;;;;;6243821;22;20012;-78
2021/05/31 00:36:33;;;;;;;0.10;0.10;;;15.10;67.80;;;;;;6217278;23;20030;-77
2021/05/31 00:38:59;;;;;;;0.10;0.10;;;15.00;68.60;;;;;;6216688;22;20004;-78
2021/05/31 00:41:25;;;;;;;0.10;0.10;;;15.10;69.50;;;;;;6217159;22;20054;-78
2021/05/31 00:43:51;;;;;;;0.10;0.10;;;15.10;69.10;;;;;;6243679;22;20416;-78
2021/05/31 00:46:17;;;;;;;0.10;0.10;;;15.10;70.00;;;;;;6217424;23;20071;-77
2021/05/31 00:48:43;;;;;;;0.10;0.10;;;15.10;69.50;;;;;;6243403;22;20423;-77
2021/05/31 00:51:11;;;;;;;0.20;0.20;;;14.90;68.90;;;;;;6244063;22;20079;-78
2021/05/31 00:53:37;;;;;;;0.10;0.10;;;14.90;70.00;;;;;;6216107;22;20020;-78
2021/05/31 00:56:04;;;;;;;0.10;0.10;;;14.90;69.60;;;;;;6216900;23;20439;-78
2021/05/31 00:58:31;;;;;;;0.10;0.10;;;14.90;69.70;;;;;;6243504;23;20001;-78
2021/05/31 01:01:01;;;;;;;0.10;0.10;;;14.80;68.20;;;;;;6244002;22;20000;-78
2021/05/31 01:03:27;;;;;;;0.10;0.10;;;14.80;68.50;;;;;;6243330;22;20011;-78
2021/05/31 01:05:55;;;;;;;0.10;0.10;;;14.80;66.50;;;;;;6243605;22;20134;-77
2021/05/31 01:08:26;;;;;;;0.10;0.10;;;14.80;70.10;;;;;;6216680;23;20019;-78
2021/05/31 01:11:18;;;;;;;0.10;0.10;;;14.70;68.70;;;;;;6243763;23;20000;-78
2021/05/31 01:13:52;;;;;;;0.10;0.10;;;14.70;68.60;;;;;;6172612;23;20234;-77
2021/05/31 01:16:22;;;;;;;0.10;0.10;;;14.70;69.10;;;;;;6243687;22;20098;-78
2021/05/31 01:18:49;;;;;;;0.10;0.10;;;14.80;69.10;;;;;;6243315;22;20015;-78
2021/05/31 01:21:41;;;;;;;0.10;0.10;;;14.80;67.90;;;;;;6243759;22;20027;-78
2021/05/31 01:24:37;;;;;;;0.10;0.10;;;14.80;65.10;;;;;;6216091;23;20004;-77
2021/05/31 01:27:23;;;;;;;0.10;0.10;;;14.60;65.40;;;;;;6243260;22;20415;-77
2021/05/31 01:30:10;;;;;;;0.10;0.10;;;14.70;66.30;;;;;;6216720;22;20011;-77
2021/05/31 01:32:39;;;;;;;0.10;0.10;;;14.60;66.50;;;;;;6242718;22;20431;-77
2021/05/31 01:35:15;;;;;;;0.10;0.10;;;14.40;68.20;;;;;;6243509;22;20012;-78
2021/05/31 01:37:42;;;;;;;0.10;0.10;;;14.40;70.60;;;;;;6216279;23;20232;-78
2021/05/31 01:40:09;;;;;;;;;;;14.40;68.70;;;;;;6217280;23;20004;-78
2021/05/31 01:42:35;;;;;;;0.10;0.10;;;14.30;69.20;;;;;;6243296;22;19907;-77
2021/05/31 01:45:02;;;;;;;0.10;0.10;;;14.30;69.80;;;;;;6243456;22;20562;-77
2021/05/31 01:47:29;;;;;;;0.10;0.10;;;14.30;69.60;;;;;;6215995;23;20087;-78
2021/05/31 01:49:55;;;;;;;0.10;0.10;;;14.30;67.20;;;;;;6243641;22;20000;-77
2021/05/31 01:52:25;;;;;;;0.10;0.10;;;14.30;67.90;;;;;;6242770;22;20443;-77
2021/05/31 01:54:56;;;;;;;0.10;0.10;;;14.40;68.10;;;;;;6243134;22;20042;-77
2021/05/31 01:57:23;;;;;;;0.10;0.10;;;14.30;69.00;;;;;;6243037;23;19996;-77
2021/05/31 01:59:50;;;;;;;0.10;0.10;;;14.30;67.40;;;;;;6216323;22;20001;-76
2021/05/31 02:02:16;;;;;;;0.10;0.10;;;14.30;68.10;;;;;;6243271;22;20004;-77
2021/05/31 02:04:42;;;;;;;0.10;0.10;;;14.20;68.60;;;;;;6243398;23;20076;-77
2021/05/31 02:07:08;;;;;;;0.10;0.10;;;14.10;69.20;;;;;;6242909;22;20416;-77
2021/05/31 02:09:34;;;;;;;0.10;0.10;;;14.00;69.00;;;;;;6243444;22;20083;-77
2021/05/31 02:12:09;;;;;;;0.10;0.10;;;13.90;69.90;;;;;;6242835;23;20063;-77
2021/05/31 02:14:57;;;;;;;0.10;0.10;;;13.90;70.10;;;;;;6243276;22;20036;-77
2021/05/31 02:17:26;;;;;;;0.10;0.10;;;13.80;70.70;;;;;;6243136;22;20024;-77
2021/05/31 02:19:58;;;;;;;0.10;0.10;;;13.80;70.40;;;;;;6243655;23;20432;-77
2021/05/31 02:22:25;;;;;;;0.10;0.10;;;13.80;71.20;;;;;;6242824;22;20031;-77
2021/05/31 02:24:54;;;;;;;0.10;0.10;;;13.70;71.80;;;;;;6242886;22;20000;-77
2021/05/31 02:27:21;;;;;;;0.10;0.10;;;13.60;72.20;;;;;;6242812;23;20332;-77
2021/05/31 02:29:46;;;;;;;0.30;0.30;;;13.40;71.40;;;;;;6243327;22;20020;-77
2021/05/31 02:32:12;;;;;;;0.10;0.10;;;13.40;70.00;;;;;;6243033;22;20431;-77
2021/05/31 02:34:38;;;;;;;0.20;0.20;;;13.30;71.80;;;;;;6242947;22;20010;-77
2021/05/31 02:37:04;;;;;;;0.10;0.10;;;13.30;70.10;;;;;;6215732;23;20439;-77
2021/05/31 02:39:30;;;;;;;0.52;0.52;;;13.30;69.80;;;;;;6243158;23;20440;-77
2021/05/31 02:41:55;;;;;;;0.10;0.10;;;13.30;72.00;;;;;;6242728;22;20008;-77
2021/05/31 02:44:21;;;;;;;0.10;0.10;;;13.30;72.60;;;;;;6243202;22;20427;-77
2021/05/31 02:46:47;;;;;;;0.10;0.10;;;13.30;72.40;;;;;;6245357;22;20004;-77
2021/05/31 02:49:12;;;;;;;0.30;0.30;;;13.30;72.40;;;;;;6245218;22;20332;-76
2021/05/31 02:51:38;;;;;;;0.20;0.20;;;13.30;70.50;;;;;;6244723;22;20055;-77
2021/05/31 02:54:06;;;;;;;0.10;0.10;;;13.20;72.80;;;;;;6244507;23;20020;-77
2021/05/31 02:56:32;;;;;;;0.10;0.10;;;13.10;72.30;;;;;;6218405;22;20000;-77
2021/05/31 02:58:57;;;;;;;0.10;0.10;;;13.10;73.10;;;;;;6244602;22;20008;-77
2021/05/31 03:01:23;;;;;;;0.10;0.10;;;13.00;74.90;;;;;;6245539;22;20117;-76
2021/05/31 03:03:49;;;;;;;0.20;0.20;;;13.00;73.20;;;;;;6217633;23;20000;-77
2021/05/31 03:06:15;;;;;;;0.10;0.10;;;13.00;72.90;;;;;;6244922;22;20487;-77
2021/05/31 03:08:40;;;;;;;0.10;0.10;;;13.00;73.00;;;;;;6217924;23;20012;-77
2021/05/31 03:11:06;;;;;;;0.10;0.10;;;13.10;71.90;;;;;;6244928;22;20147;-77
2021/05/31 03:13:32;;;;;;;2.28;1.02;;;13.00;72.40;;;;;;6244466;22;19996;-76
2021/05/31 03:15:57;;;;;;;0.20;0.20;;;12.80;73.80;;;;;;6245222;23;20431;-77
2021/05/31 03:18:23;;;;;;;0.20;0.20;;;12.70;73.20;;;;;;6244261;22;20000;-77
2021/05/31 03:20:49;;;;;;;0.38;0.38;;;12.70;72.70;;;;;;6218056;23;20004;-76
2021/05/31 03:23:14;;;;;;;0.20;0.20;;;12.80;71.50;;;;;;6244787;22;20009;-76
2021/05/31 03:25:40;;;;;;;0.20;0.20;;;12.80;72.60;;;;;;6244825;22;19996;-77
2021/05/31 03:28:07;;;;;;;1.60;1.08;;;12.80;74.50;;;;;;6244340;23;20007;-77
2021/05/31 03:30:33;;;;;;;0.10;0.10;;;12.80;73.30;;;;;;6217843;22;20010;-76
2021/05/31 03:32:59;;;;;;;0.10;0.10;;;12.80;73.50;;;;;;6244370;22;20461;-77
2021/05/31 03:35:25;;;;;;;0.10;0.10;;;12.90;73.70;;;;;;6244668;22;20016;-76
2021/05/31 03:37:51;;;;;;;0.20;0.20;;;12.90;72.90;;;;;;6244605;22;20001;-77
2021/05/31 03:40:21;;;;;;;0.10;0.10;;;12.90;73.10;;;;;;6244344;22;20000;-76
2021/05/31 03:42:56;;;;;;;0.68;0.68;;;12.90;74.70;;;;;;6244157;22;20000;-76
2021/05/31 03:45:23;;;;;;;0.10;0.10;;;12.90;73.40;;;;;;6217807;23;20008;-77
2021/05/31 03:47:49;;;;;;;0.10;0.10;;;13.00;73.80;;;;;;6243704;22;20055;-76
2021/05/31 03:50:16;;;;;;;0.57;0.57;;;13.00;74.10;;;;;;6217873;23;20084;-78
2021/05/31 03:52:42;;;;;;;0.10;0.10;;;13.00;73.20;;;;;;6244069;22;20015;-77
2021/05/31 03:55:09;;;;;;;0.10;0.10;;;13.00;74.30;;;;;;6244371;22;20013;-77
2021/05/31 03:57:36;;;;;;;1.65;1.35;;;13.00;71.50;;;;;;6243602;22;19996;-78
2021/05/31 04:00:07;;;;;;;0.22;0.20;;;13.00;70.70;;;;;;6217834;23;20009;-78
2021/05/31 04:02:37;;;;;;;0.17;0.17;;;13.10;70.00;;;;;;6244216;22;20050;-78
2021/05/31 04:05:03;;;;;;;0.10;0.10;;;13.10;69.80;;;;;;6244601;22;20431;-78
2021/05/31 04:12:57;;;;;;;0.90;0.45;;;13.30;70.90;;;;;;6243834;22;20010;-78
2021/05/31 04:15:23;;;;;;;7.68;5.35;;;13.30;71.70;;;;;;6217517;23;20094;-78
2021/05/31 04:17:49;;;;;;;0.20;0.20;;;13.30;71.10;;;;;;6217117;23;20392;-78
2021/05/31 04:20:15;;;;;;;0.20;0.20;;;13.40;71.30;;;;;;6244292;23;20071;-78
2021/05/31 04:22:41;;;;;;;0.10;0.10;;;13.40;72.00;;;;;;6243939;22;20079;-78
2021/05/31 04:25:08;;;;;;;0.10;0.10;;;13.40;73.10;;;;;;6217409;23;20392;-78
2021/05/31 04:27:33;;;;;;;0.10;0.10;;;13.50;73.80;;;;;;6243375;23;20000;-78
2021/05/31 04:29:59;;;;;;;0.10;0.10;;;13.50;71.10;;;;;;6244617;22;20331;-78
2021/05/31 04:32:25;;;;;;;1.25;0.30;;;13.50;70.90;;;;;;6243534;23;20054;-78
2021/05/31 04:34:51;;;;;;;0.43;0.30;;;13.50;70.40;;;;;;6244080;23;20390;-78
2021/05/31 04:37:17;;;;;;;0.30;0.30;;;13.50;70.50;;;;;;6244138;22;20423;-78
2021/05/31 04:39:43;;;;;;;0.15;0.15;;;13.50;71.30;;;;;;6243990;22;20000;-78
2021/05/31 04:42:09;;;;;;;0.10;0.10;;;13.50;71.00;;;;;;6243647;22;20000;-78
2021/05/31 04:44:35;;;;;;;0.10;0.10;;;13.50;72.70;;;;;;6217519;22;20328;-78
2021/05/31 04:47:02;;;;;;;0.40;0.40;;;13.60;71.60;;;;;;6243510;23;20003;-77
2021/05/31 04:49:28;;;;;;;0.10;0.10;;;13.70;71.80;;;;;;6244135;22;20022;-78
2021/05/31 04:51:53;;;;;;;0.10;0.10;;;13.80;73.80;;;;;;6243615;22;20502;-77
2021/05/31 04:54:19;;;;;;;0.13;0.13;;;13.80;73.30;;;;;;6243345;23;20083;-77
2021/05/31 04:56:45;;;;;;;0.10;0.10;;;13.90;73.20;;;;;;6243653;22;20004;-78
2021/05/31 04:59:12;;;;;;;0.10;0.10;;;13.90;73.70;;;;;;6244308;22;20003;-78
2021/05/31 05:01:38;;;;;;;;;;;13.90;71.60;;;;;;6244248;22;20315;-78
2021/05/31 05:04:05;;;;;;;0.10;0.10;;;14.00;71.40;;;;;;6243412;22;19981;-77
2021/05/31 05:06:31;;;;;;;0.25;0.25;;;14.10;72.50;;;;;;6217269;23;20424;-78
2021/05/31 05:08:56;;;;;;;0.10;0.10;;;14.10;73.50;;;;;;6243571;22;20198;-78
2021/05/31 05:11:23;;;;;;;0.20;0.20;;;14.10;74.00;;;;;;6243642;22;20032;-78
2021/05/31 05:13:50;;;;;;;0.10;0.10;;;14.20;71.80;;;;;;6216103;23;20035;-78
2021/05/31 05:16:17;;;;;;;0.10;0.10;;;14.30;69.80;;;;;;6243652;22;20251;-78
2021/05/31 05:18:48;;;;;;;0.10;0.10;;;14.30;70.40;;;;;;6243359;23;20492;-78
2021/05/31 05:21:16;;;;;;;0.20;0.20;;;14.40;70.10;;;;;;6216638;23;20004;-78
2021/05/31 05:23:46;;;;;;;0.40;0.40;;;14.50;71.10;;;;;;6243756;22;20000;-78
2021/05/31 05:26:12;;;;;;;0.30;0.30;;;14.50;67.90;;;;;;6244097;22;20004;-79
2021/05/31 05:28:38;;;;;;;0.10;0.10;;;14.60;68.00;;;;;;6243287;23;20023;-78
2021/05/31 05:31:07;;;;;;;0.10;0.10;;;14.60;69.00;;;;;;6243487;22;20423;-77
2021/05/31 05:33:42;;;;;;;0.43;0.43;;;14.70;69.80;;;;;;6216074;23;20327;-82
2021/05/31 05:36:23;;;;;;;0.55;0.55;;;14.70;68.90;;;;;;6243316;22;20012;-78
2021/05/31 05:49:41;;;;;;;0.10;0.10;;;14.90;69.50;;;;;;6244825;22;20004;-80
2021/05/31 05:52:10;;;;;;;0.10;0.10;;;15.00;66.50;;;;;;6243448;22;20015;-78
2021/05/31 05:54:36;;;;;;;0.28;0.28;;;15.10;68.80;;;;;;6243208;23;20012;-78
2021/05/31 05:57:02;;;;;;;2.10;0.30;;;15.10;68.20;;;;;;6242743;22;20533;-78
2021/05/31 05:59:29;;;;;;;0.10;0.10;;;15.20;70.50;;;;;;6242958;23;20016;-78
2021/05/31 06:01:55;;;;;;;0.10;0.10;;;15.20;66.90;;;;;;6242872;22;20332;-78
2021/05/31 06:04:20;;;;;;;5.15;0.85;;;15.20;67.30;;;;;;6243334;23;20420;-78
2021/05/31 06:06:46;;;;;;;0.20;0.20;;;15.30;66.10;;;;;;6242923;22;20023;-78
2021/05/31 06:09:15;;;;;;;0.10;0.10;;;15.40;67.20;;;;;;6243528;23;20004;-77
2021/05/31 06:11:41;;;;;;;0.20;0.20;;;15.40;68.30;;;;;;6216741;22;20000;-76
2021/05/31 06:14:09;;;;;;;0.10;0.10;;;15.50;66.90;;;;;;6242825;22;20008;-78
2021/05/31 06:16:34;;;;;;;0.10;0.10;;;15.50;70.20;;;;;;6243029;22;20027;-77
2021/05/31 06:19:00;;;;;;;0.10;0.10;;;15.60;70.00;;;;;;6242228;22;19996;-77
2021/05/31 06:21:26;;;;;;;0.10;0.10;;;15.60;68.90;;;;;;6243479;23;20423;-76
2021/05/31 06:23:52;;;;;;;3.97;0.75;;;15.70;67.90;;;;;;6215797;23;20012;-76
2021/05/31 06:26:18;;;;;;;0.32;0.32;;;15.80;68.60;;;;;;6243109;23;19996;-77
2021/05/31 06:28:44;;;;;;;0.10;0.10;;;15.80;66.70;;;;;;6242931;22;20075;-77
2021/05/31 06:31:10;;;;;;;0.10;0.10;;;15.80;66.80;;;;;;6243276;22;20384;-77
2021/05/31 06:33:35;;;;;;;0.75;0.70;;;15.80;67.50;;;;;;6242640;23;20000;-77
2021/05/31 06:36:06;;;;;;;2.03;1.13;;;16.00;70.50;;;;;;6243396;23;20066;-77
2021/05/31 06:38:33;;;;;;;0.17;0.17;;;16.10;67.00;;;;;;6242838;22;19997;-75
2021/05/31 06:40:59;;;;;;;0.10;0.10;;;16.10;67.00;;;;;;6243285;22;20063;-76
2021/05/31 06:43:24;;;;;;;1.27;0.82;;;16.30;70.70;;;;;;6242491;23;20450;-78
2021/05/31 06:45:50;;;;;;;0.50;0.40;;;16.40;66.20;;;;;;6243333;22;20003;-77
2021/05/31 06:48:16;;;;;;;0.10;0.10;;;16.30;64.00;;;;;;6242708;22;20471;-77
2021/05/31 06:50:43;;;;;;;2.05;0.68;;;16.20;66.50;;;;;;6216308;23;20026;-78
2021/05/31 06:53:09;;;;;;;0.40;0.40;;;16.40;69.80;;;;;;6242674;22;20619;-78
2021/05/31 06:55:35;;;;;;;0.10;0.10;;;16.50;69.10;;;;;;6215792;23;20099;-76
2021/05/31 06:58:01;;;;;;;0.10;0.10;;;16.60;64.50;;;;;;6242714;22;20000;-76
2021/05/31 07:00:28;;;;;;;0.10;0.10;;;16.70;70.40;;;;;;6216388;23;20008;-76
2021/05/31 07:02:54;;;;;;;0.10;0.10;;;16.80;69.90;;;;;;6215667;23;20532;-77
2021/05/31 07:05:20;;;;;;;0.10;0.10;;;16.90;64.90;;;;;;6243608;22;20052;-76
2021/05/31 07:07:46;;;;;;;0.10;0.10;;;17.00;70.50;;;;;;6242491;22;20308;-76
2021/05/31 07:10:14;;;;;;;0.40;0.40;;;17.20;66.30;;;;;;6216099;23;20007;-78
2021/05/31 07:12:41;;;;;;;0.10;0.10;;;17.20;67.80;;;;;;6242721;23;20009;-78
2021/05/31 07:15:10;;;;;;;0.10;0.10;;;17.30;65.60;;;;;;6242795;23;20404;-77
2021/05/31 07:17:36;;;;;;;0.20;0.20;;;17.40;67.50;;;;;;6242773;22;20028;-77
2021/05/31 07:20:11;;;;;;;0.10;0.10;;;17.50;65.90;;;;;;6216336;23;20079;-77
2021/05/31 07:22:38;;;;;;;0.10;0.10;;;17.60;67.80;;;;;;6215484;23;20139;-77
2021/05/31 07:25:06;;;;;;;0.85;0.30;;;17.70;67.90;;;;;;6242855;22;20000;-77
2021/05/31 07:27:32;;;;;;;0.00;0.00;;;17.80;61.60;;;;;;6242458;22;19998;-76
2021/05/31 07:29:58;;;;;;;0.10;0.10;;;17.80;66.70;;;;;;6243227;22;20058;-77
2021/05/31 07:32:24;;;;;;;0.00;0.00;;;17.90;66.70;;;;;;6217591;23;20004;-77
2021/05/31 07:34:50;;;;;;;1.40;1.30;;;18.00;65.30;;;;;;6244604;22;20450;-77
2021/05/31 07:37:16;;;;;;;0.10;0.10;;;18.10;63.50;;;;;;6244160;22;20006;-78
2021/05/31 07:39:42;;;;;;;0.75;0.52;;;18.10;63.20;;;;;;6245175;22;20031;-78
2021/05/31 07:42:08;;;;;;;0.10;0.10;;;18.10;61.70;;;;;;6244074;22;20396;-78
2021/05/31 07:44:34;;;;;;;0.15;0.15;;;18.10;64.00;;;;;;6217748;22;20012;-78
2021/05/31 07:47:00;;;;;;;0.10;0.10;;;18.20;61.70;;;;;;6244784;22;20435;-77
2021/05/31 07:49:26;;;;;;;0.10;0.10;;;18.20;63.40;;;;;;6244163;22;20000;-77
2021/05/31 07:51:54;;;;;;;0.10;0.10;;;18.30;63.40;;;;;;6243809;23;20007;-78
2021/05/31 07:54:21;;;;;;;0.20;0.20;;;18.20;61.90;;;;;;6244552;22;20021;-76
2021/05/31 07:56:47;;;;;;;0.10;0.10;;;18.30;61.60;;;;;;6244123;22;20427;-76
2021/05/31 07:59:12;;;;;;;0.10;0.10;;;18.40;63.30;;;;;;6244307;22;20095;-76
2021/05/31 08:01:38;;;;;;;0.10;0.10;;;18.40;62.80;;;;;;6244840;23;20024;-77
2021/05/31 08:04:06;;;;;;;0.00;0.00;;;18.40;62.40;;;;;;6217104;23;20063;-76
2021/05/31 08:06:35;;;;;;;0.20;0.20;;;18.40;63.40;;;;;;6244542;23;20000;-77
2021/05/31 08:09:03;;;;;;;1.55;1.25;;;18.60;63.90;;;;;;6244097;22;20335;-78
2021/05/31 08:11:28;;;;;;;4.40;0.55;;;18.60;58.00;;;;;;6244240;22;20448;-78
2021/05/31 08:13:54;;;;;;;0.00;0.00;;;18.60;60.10;;;;;;6244136;22;20015;-77
2021/05/31 08:16:20;;;;;;;0.00;0.00;;;18.70;59.10;;;;;;6244646;22;20000;-76
2021/05/31 08:18:46;;;;;;;0.10;0.10;;;18.70;62.10;;;;;;6243783;23;20075;-77
2021/05/31 08:21:12;;;;;;;0.10;0.10;;;18.80;61.90;;;;;;6244113;22;20000;-78
2021/05/31 08:23:38;;;;;;;0.10;0.10;;;18.80;60.30;;;;;;6243853;23;20003;-77
2021/05/31 08:26:05;;;;;;;0.10;0.10;;;18.90;61.50;;;;;;6244455;22;20008;-76
2021/05/31 08:28:31;;;;;;;0.90;0.90;;;19.00;60.60;;;;;;6243782;22;20079;-78
2021/05/31 08:30:57;;;;;;;0.00;0.00;;;19.10;62.30;;;;;;6244677;23;20028;-77
2021/05/31 08:33:22;;;;;;;0.10;0.10;;;19.10;61.30;;;;;;6243152;23;20000;-77
2021/05/31 08:35:48;;;;;;;0.15;0.15;;;19.10;61.60;;;;;;6244362;22;20012;-76
2021/05/31 08:38:15;;;;;;;2.60;0.50;;;19.20;61.60;;;;;;6243515;22;20039;-77
2021/05/31 08:40:41;;;;;;;0.10;0.10;;;19.20;59.20;;;;;;6244184;22;20007;-78
2021/05/31 08:43:07;;;;;;;0.45;0.45;;;19.20;56.20;;;;;;6243826;23;20292;-77
2021/05/31 08:45:37;;;;;;;0.20;0.17;;;19.30;54.60;;;;;;6243799;22;20034;-78
2021/05/31 08:48:03;;;;;;;0.10;0.10;;;19.40;61.80;;;;;;6243780;23;20083;-77
2021/05/31 08:50:31;;;;;;;0.10;0.10;;;19.50;57.60;;;;;;6243977;23;19996;-78
2021/05/31 08:52:58;;;;;;;0.15;0.15;;;19.50;58.10;;;;;;6216331;23;20271;-77
2021/05/31 08:55:25;;;;;;;;;;;19.50;53.70;;;;;;6244768;22;20020;-77
2021/05/31 08:57:51;;;;;;;0.20;0.20;;;19.50;53.10;;;;;;6243551;23;19934;-77
2021/05/31 09:00:20;;;;;;;0.10;0.10;;;19.50;55.80;;;;;;6243755;22;20004;-76
2021/05/31 09:02:46;;;;;;;0.20;0.20;;;19.50;56.80;;;;;;6243818;22;20008;-77
2021/05/31 09:05:12;;;;;;;0.10;0.10;;;19.60;54.40;;;;;;6243751;22;20424;-76
2021/05/31 09:07:38;;;;;;;0.17;0.17;;;19.60;56.30;;;;;;6243124;22;20008;-78
2021/05/31 09:10:06;;;;;;;0.10;0.10;;;19.70;55.30;;;;;;6244037;22;19999;-76
2021/05/31 09:12:36;;;;;;;0.57;0.20;;;19.80;55.70;;;;;;6243431;22;20430;-77
2021/05/31 09:15:06;;;;;;;0.22;0.22;;;19.80;56.00;;;;;;6243200;22;20011;-77
2021/05/31 09:17:34;;;;;;;0.10;0.10;;;19.90;51.00;;;;;;6243700;22;20442;-77
2021/05/31 09:20:01;;;;;;;0.10;0.10;;;19.90;54.00;;;;;;6216909;23;20008;-78
2021/05/31 09:22:28;;;;;;;0.10;0.10;;;19.80;54.00;;;;;;6216658;23;20031;-78
2021/05/31 09:24:58;;;;;;;;;;;19.90;52.00;;;;;;6244508;23;20011;-78
2021/05/31 09:27:25;;;;;;;0.10;0.10;;;19.90;52.50;;;;;;6243388;23;20231;-78
2021/05/31 09:30:09;;;;;;;0.10;0.10;;;20.00;54.80;;;;;;6243583;22;20083;-77
2021/05/31 09:32:35;;;;;;;0.13;0.13;;;20.00;52.80;;;;;;6243441;23;20024;-77
2021/05/31 09:35:04;;;;;;;11.07;0.50;;;20.10;50.90;;;;;;6243594;22;20317;-79
2021/05/31 09:37:32;;;;;;;0.10;0.10;;;20.20;53.20;;;;;;6216380;23;20000;-77
2021/05/31 09:40:04;;;;;;;0.10;0.10;;;20.30;50.70;;;;;;6243490;22;20433;-78
2021/05/31 09:42:31;;;;;;;0.10;0.10;;;20.30;52.50;;;;;;6242765;22;20039;-78
2021/05/31 09:45:04;;;;;;;0.00;0.00;;;20.40;53.40;;;;;;6243625;22;20031;-76
2021/05/31 09:47:33;;;;;;;0.10;0.10;;;20.40;50.90;;;;;;6243154;22;19992;-77
2021/05/31 09:50:00;;;;;;;0.20;0.20;;;20.50;50.30;;;;;;6243401;22;20030;-78
2021/05/31 09:52:26;;;;;;;0.10;0.10;;;20.60;55.20;;;;;;6242490;22;20484;-77
2021/05/31 09:54:52;;;;;;;0.10;0.10;;;20.70;56.70;;;;;;6243447;22;20079;-78
2021/05/31 09:57:35;;;;;;;0.10;0.10;;;20.90;54.10;;;;;;6242868;22;19996;-77
2021/05/31 10:00:13;;;;;;;0.10;0.10;;;21.10;57.50;;;;;;6243412;23;20000;-76
2021/05/31 10:05:48;;;;;;;1.55;0.60;;;21.10;55.70;;;;;;6243118;22;20073;-77
2021/05/31 10:10:39;;;;;;;0.40;0.40;;;21.10;54.10;;;;;;6245021;22;20312;-79
2021/05/31 10:13:06;;;;;;;0.70;0.55;;;20.80;58.10;;;;;;6243321;22;19997;-78
2021/05/31 10:15:40;;;;;;;0.80;0.70;;;20.60;56.90;;;;;;6243026;22;20019;-78
2021/05/31 10:18:09;;;;;;;0.75;0.73;;;20.30;55.00;;;;;;6242520;22;20223;-77
2021/05/31 10:20:39;;;;;;;1.58;0.85;;;20.20;53.00;;;;;;6216401;23;20469;-76
2021/05/31 10:23:08;;;;;;;0.98;0.88;;;20.30;55.40;;;;;;6243092;23;20001;-77
2021/05/31 10:25:37;;;;;;;1.30;0.95;;;20.20;57.10;;;;;;6242990;22;20079;-78
2021/05/31 10:28:14;;;;;;;2.05;1.05;;;20.00;56.80;;;;;;6215565;23;20111;-78
2021/05/31 10:31:03;;;;;;;2.70;1.13;;;20.00;55.90;;;;;;6216444;23;20011;-78
2021/05/31 10:33:30;;;;;;;1.60;0.85;;;19.90;54.40;;;;;;6220506;23;20007;-78
2021/05/31 10:36:07;;;;;;;1.17;0.73;;;19.70;54.90;;;;;;6243757;23;20012;-78
2021/05/31 10:38:36;;;;;;;0.40;0.40;;;19.40;54.70;;;;;;6242397;23;19997;-77
2021/05/31 10:41:10;;;;;;;0.63;0.50;;;19.30;55.10;;;;;;6242973;22;20030;-76
2021/05/31 10:43:45;;;;;;;0.57;0.55;;;19.60;54.80;;;;;;6242480;22;20004;-77
2021/05/31 10:46:16;;;;;;;0.82;0.82;;;19.90;53.60;;;;;;6243141;22;19997;-77
2021/05/31 10:48:43;;;;;;;1.58;0.40;;;19.80;51.90;;;;;;6242652;22;20431;-77
2021/05/31 10:51:25;;;;;;;0.57;0.57;;;19.70;53.20;;;;;;6243633;23;20004;-77
2021/05/31 10:53:52;;;;;;;2.17;0.93;;;19.90;56.10;;;;;;6242542;22;20016;-76
2021/05/31 10:56:17;;;;;;;0.40;0.40;;;20.10;54.10;;;;;;6216118;22;20335;-76
2021/05/31 10:58:50;;;;;;;3.75;1.20;;;20.10;56.30;;;;;;6215706;23;19996;-77
2021/05/31 11:01:28;;;;;;;0.80;0.70;;;19.90;55.30;;;;;;6243158;23;20003;-77
2021/05/31 11:04:02;;;;;;;0.30;0.30;;;19.70;55.20;;;;;;6242334;22;20008;-77
2021/05/31 11:06:33;;;;;;;1.27;0.20;;;19.60;56.70;;;;;;6217748;23;20394;-78
2021/05/31 11:09:08;;;;;;;2.35;1.02;;;19.90;60.60;;;;;;6244731;23;19999;-77
2021/05/31 11:11:42;;;;;;;2.55;1.33;;;20.00;61.90;;;;;;6244652;22;20011;-78
2021/05/31 11:14:10;;;;;;;0.65;0.63;;;19.70;62.60;;;;;;6244784;22;20015;-78
2021/05/31 11:16:50;;;;;;;1.05;0.93;;;19.70;65.10;;;;;;6218059;23;20445;-78
2021/05/31 11:19:16;;;;;;;0.57;0.52;;;19.60;65.70;;;;;;6244679;23;20555;-77
2021/05/31 11:21:44;;;;;;;2.92;1.98;;;19.60;67.50;;;;;;6244491;23;20004;-77
2021/05/31 11:24:13;;;;;;;0.85;0.52;;;19.80;63.40;;;;;;6245112;22;19997;-77
2021/05/31 11:26:41;;;;;;;0.68;0.47;;;20.20;66.40;;;;;;6244610;22;20134;-78
2021/05/31 11:29:08;;;;;;;1.17;0.65;;;20.40;65.60;;;;;;6217756;23;20043;-76
2021/05/31 11:31:36;;;;;;;3.60;1.58;;;20.30;67.60;;;;;;6217893;23;20054;-78
2021/05/31 11:34:04;;;;;;;1.88;1.23;;;20.30;66.80;;;;;;6244589;23;20000;-78
2021/05/31 11:36:37;;;;;;;0.85;0.70;;;20.00;63.70;;;;;;6244326;23;20054;-77
2021/05/31 11:39:08;;;;;;;1.25;1.15;;;20.10;65.50;;;;;;6244064;22;20050;-78
2021/05/31 11:41:49;;;;;;;0.10;0.10;;;20.10;65.80;;;;;;6244762;23;20008;-77
2021/05/31 11:44:24;;;;;;;5.18;1.30;;;20.00;65.00;;;;;;6244642;22;20008;-77
2021/05/31 11:46:55;;;;;;;8.38;1.67;;;19.90;62.10;;;;;;6244700;22;20452;-78
2021/05/31 11:49:23;;;;;;;2.35;0.80;;;19.60;62.10;;;;;;6217585;23;20014;-78
2021/05/31 11:52:03;;;;;;;1.65;1.35;;;19.80;67.00;;;;;;6243718;22;19996;-77
2021/05/31 11:54:35;;;;;;;1.42;1.33;;;20.30;67.80;;;;;;6244313;22;20040;-79
2021/05/31 11:57:07;;;;;;;1.15;0.82;;;20.50;66.50;;;;;;6244673;22;20466;-78
2021/05/31 11:59:44;;;;;;;0.32;0.28;;;20.50;65.50;;;;;;6244469;23;20040;-77
2021/05/31 12:02:17;;;;;;;1.48;1.10;;;20.60;68.00;;;;;;6243943;22;20000;-78
2021/05/31 12:04:48;;;;;;;1.75;1.15;;;21.50;65.50;;;;;;6244379;22;20004;-78
2021/05/31 12:07:17;;;;;;;1.30;1.20;;;20.70;64.50;;;;;;6244323;22;20001;-78
2021/05/31 12:09:43;;;;;;;1.85;1.50;;;20.40;69.10;;;;;;6244524;22;20062;-79
2021/05/31 12:12:11;;;;;;;1.70;1.23;;;24.50;59.10;;;;;;6243671;22;20004;-78
2021/05/31 12:14:56;;;;;;;2.25;1.20;;;27.10;53.00;;;;;;6244111;23;20058;-79
2021/05/31 12:17:23;;;;;;;1.42;1.23;;;24.90;53.10;;;;;;6243561;22;20384;-78
2021/05/31 12:19:51;;;;;;;0.70;0.60;;;22.30;58.30;;;;;;6245143;22;20377;-76
2021/05/31 12:22:19;;;;;;;3.78;1.33;;;21.00;62.50;;;;;;6216723;22;20331;-77
2021/05/31 12:24:55;;;;;;;2.13;1.08;;;20.20;67.10;;;;;;6244071;23;20071;-78
2021/05/31 12:27:28;;;;;;;3.47;1.92;;;22.60;62.20;;;;;;6243665;22;20000;-79
2021/05/31 12:29:55;;;;;;;1.45;0.82;;;27.00;51.20;;;;;;6242433;23;20318;-77
2021/05/31 12:32:22;;;;;;;;;;;28.70;47.00;;;;;;6240755;22;20000;-78
2021/05/31 12:34:51;;;;;;;2.90;1.63;;;26.70;48.60;;;;;;6240722;23;19907;-78
2021/05/31 12:37:38;;;;;;;3.30;2.00;;;24.30;54.70;;;;;;6240193;22;20000;-76
2021/05/31 12:40:07;;;;;;;2.95;1.33;;;26.30;51.10;;;;;;6240694;22;20001;-79
2021/05/31 12:42:34;;;;;;;9.15;1.65;;;27.30;51.20;;;;;;6239929;23;20000;-78
2021/05/31 12:45:10;;;;;;;1.38;1.25;;;29.80;46.00;;;;;;6240849;23;20003;-78
2021/05/31 12:47:44;;;;;;;1.90;1.80;;;31.50;43.30;;;;;;6240175;23;20008;-78
2021/05/31 12:50:13;;;;;;;3.60;1.90;;;31.30;42.80;;;;;;6240869;22;20004;-77
2021/05/31 12:52:46;;;;;;;0.30;0.30;;;32.20;40.80;;;;;;6240109;22;20157;-79
2021/05/31 12:55:30;;;;;;;4.43;2.13;;;29.00;44.70;;;;;;6240484;22;20019;-78
2021/05/31 12:57:56;;;;;;;5.07;1.85;;;28.90;46.90;;;;;;6213142;23;20095;-77
2021/05/31 13:00:25;;;;;;;1.42;1.33;;;30.00;44.10;;;;;;6240644;22;20008;-77
2021/05/31 13:02:52;;;;;;;8.25;1.88;;;30.20;43.50;;;;;;6239824;22;20153;-76
2021/05/31 13:05:21;;;;;;;3.10;2.10;;;27.30;49.30;;;;;;6240538;22;20345;-79
2021/05/31 13:07:50;;;;;;;1.58;1.10;;;28.30;48.30;;;;;;6239824;22;19995;-77
2021/05/31 13:10:21;;;;;;;5.00;2.05;;;29.40;47.10;;;;;;6240388;22;20000;-76
2021/05/31 13:13:02;;;;;;;7.75;1.80;;;29.30;45.50;;;;;;6240375;22;20004;-76
2021/05/31 13:15:42;;;;;;;2.47;2.17;;;26.40;49.20;;;;;;6240698;23;20517;-78
2021/05/31 13:18:14;;;;;;;1.95;1.52;;;26.60;51.80;;;;;;6240388;22;20020;-78